Time;durP1;ratioP1;P1;durP2;ratioP2;P2;SDS_P1;SDS_P2;PMS_P1;PMS_P2;Temp;Humidity;BMP_temperature;BMP_pressure;BME280_temperature;BME280_humidity;BME280_pressure;Samples;Min_cycle;Max_cycle;Signal;HPM_P1;HPM_P2
2023/07/05 00:01:36;;;;;;;1.92;1.30;;;21.00;99.90;;;;;;5012538;28;20104;-39
2023/07/05 00:04:01;;;;;;;1.85;1.30;;;21.00;99.90;;;;;;5010347;28;20045;-40
2023/07/05 00:06:27;;;;;;;1.98;1.50;;;21.00;99.90;;;;;;5011634;28;20049;-39
2023/07/05 00:08:54;;;;;;;1.80;1.15;;;21.00;99.90;;;;;;5011354;28;20096;-39
2023/07/05 00:11:20;;;;;;;2.00;1.17;;;21.00;99.90;;;;;;5011715;28;20054;-38
2023/07/05 00:13:45;;;;;;;1.90;1.27;;;21.00;99.90;;;;;;5011526;28;20096;-39
2023/07/05 00:16:12;;;;;;;1.92;1.20;;;21.00;99.90;;;;;;5012055;28;20412;-39
2023/07/05 00:18:38;;;;;;;2.45;1.58;;;21.00;99.90;;;;;;5012139;28;20038;-40
2023/07/05 00:21:09;;;;;;;2.15;1.25;;;21.00;99.90;;;;;;5011316;28;20044;-38
2023/07/05 00:23:36;;;;;;;2.25;1.42;;;21.00;99.90;;;;;;5011707;28;20029;-39
2023/07/05 00:26:03;;;;;;;2.42;1.35;;;21.00;99.90;;;;;;5012372;28;20405;-39
2023/07/05 00:28:29;;;;;;;2.20;1.58;;;21.00;99.90;;;;;;5011408;28;20482;-36
2023/07/05 00:30:55;;;;;;;1.90;1.30;;;21.00;99.90;;;;;;5011372;28;20030;-40
2023/07/05 00:33:20;;;;;;;3.47;1.48;;;21.00;99.90;;;;;;5003227;28;20029;-38
2023/07/05 00:35:48;;;;;;;1.67;1.30;;;21.00;99.90;;;;;;5011972;28;20018;-37
2023/07/05 00:38:14;;;;;;;2.92;1.40;;;21.00;99.90;;;;;;5011243;28;20068;-41
2023/07/05 00:40:40;;;;;;;1.95;1.30;;;21.00;99.90;;;;;;5011190;28;20107;-40
2023/07/05 00:43:05;;;;;;;2.33;1.10;;;21.00;99.90;;;;;;5011235;28;20404;-40
2023/07/05 00:45:41;;;;;;;4.07;1.23;;;21.00;99.90;;;;;;5011217;28;20097;-38
2023/07/05 00:48:13;;;;;;;1.20;1.00;;;21.00;99.90;;;;;;5011788;28;20046;-40
2023/07/05 00:50:45;;;;;;;2.33;1.20;;;21.00;99.90;;;;;;5011600;28;20436;-39
2023/07/05 00:53:12;;;;;;;1.77;1.25;;;21.00;99.90;;;;;;5009866;28;20025;-40
2023/07/05 00:55:41;;;;;;;1.80;1.30;;;21.00;99.90;;;;;;5011634;28;20404;-38
2023/07/05 00:58:07;;;;;;;2.15;1.30;;;21.00;99.90;;;;;;5011988;28;20494;-38
2023/07/05 01:00:33;;;;;;;2.35;1.27;;;21.00;99.90;;;;;;5011482;28;20101;-40
2023/07/05 01:03:01;;;;;;;2.72;1.50;;;21.00;99.90;;;;;;5011067;28;20033;-36
2023/07/05 01:05:29;;;;;;;1.50;1.00;;;21.00;99.90;;;;;;5013200;28;20030;-39
2023/07/05 01:07:55;;;;;;;2.22;1.40;;;21.00;99.90;;;;;;5014883;28;20029;-38
2023/07/05 01:10:23;;;;;;;2.25;1.27;;;21.00;99.90;;;;;;5014648;28;20025;-37
2023/07/05 01:13:27;;;;;;;3.05;1.25;;;21.00;99.90;;;;;;5015128;28;20025;-38
2023/07/05 01:16:00;;;;;;;1.60;1.33;;;20.90;99.90;;;;;;5011352;28;20046;-39
2023/07/05 01:18:53;;;;;;;1.42;1.17;;;21.00;99.90;;;;;;5014737;28;20028;-40
2023/07/05 01:21:38;;;;;;;1.60;1.08;;;21.00;99.90;;;;;;5014648;28;20044;-38
2023/07/05 01:24:27;;;;;;;2.35;1.20;;;21.00;99.90;;;;;;5014547;28;20051;-39
2023/07/05 01:27:27;;;;;;;2.55;1.33;;;21.00;99.90;;;;;;5013923;28;20095;-36
2023/07/05 01:30:11;;;;;;;1.30;1.10;;;21.00;99.90;;;;;;5014452;28;20029;-39
2023/07/05 01:32:53;;;;;;;2.17;1.58;;;21.00;99.90;;;;;;5009202;28;20018;-40
2023/07/05 01:35:32;;;;;;;1.90;1.25;;;21.00;99.90;;;;;;5014348;28;20025;-40
2023/07/05 01:37:58;;;;;;;1.60;1.10;;;20.90;99.90;;;;;;5014723;28;20026;-38
2023/07/05 01:40:23;;;;;;;2.67;1.20;;;20.90;99.90;;;;;;5014102;28;20080;-40
2023/07/05 01:42:56;;;;;;;2.00;1.17;;;20.90;99.90;;;;;;5014873;28;20080;-39
2023/07/05 01:45:43;;;;;;;5.05;1.50;;;20.90;99.90;;;;;;5014206;28;20470;-37
2023/07/05 01:48:21;;;;;;;1.30;1.10;;;20.90;99.90;;;;;;4998389;28;20047;-39
2023/07/05 01:51:16;;;;;;;1.95;1.23;;;20.90;99.90;;;;;;5014326;28;20021;-38
2023/07/05 01:53:55;;;;;;;1.30;1.10;;;20.90;99.90;;;;;;4993466;28;20029;-39
2023/07/05 01:56:28;;;;;;;1.80;1.40;;;20.90;99.90;;;;;;5014060;28;20025;-39
2023/07/05 01:58:57;;;;;;;1.52;1.10;;;21.00;99.90;;;;;;5013884;28;20559;-38
2023/07/05 02:01:25;;;;;;;1.38;1.10;;;20.90;99.90;;;;;;5013899;28;20041;-36
2023/07/05 02:03:52;;;;;;;1.75;1.30;;;20.90;99.90;;;;;;5013756;28;20397;-39
2023/07/05 02:06:19;;;;;;;1.40;1.15;;;20.90;99.90;;;;;;5013765;28;20436;-40
2023/07/05 02:08:49;;;;;;;2.75;1.33;;;20.90;99.90;;;;;;5013641;28;20033;-39
2023/07/05 02:11:15;;;;;;;3.53;1.23;;;20.90;99.90;;;;;;5013572;28;20030;-38
2023/07/05 02:13:41;;;;;;;2.75;1.40;;;20.90;99.90;;;;;;5013704;28;20018;-39
2023/07/05 02:16:07;;;;;;;2.00;1.25;;;20.90;99.90;;;;;;5013571;28;20061;-40
2023/07/05 02:18:32;;;;;;;1.27;1.02;;;20.90;99.90;;;;;;5013748;28;20054;-39
2023/07/05 02:20:58;;;;;;;2.22;1.25;;;20.90;99.90;;;;;;5013395;28;20401;-39
2023/07/05 02:23:24;;;;;;;2.10;1.35;;;20.90;99.90;;;;;;5013704;28;20537;-38
2023/07/05 02:25:58;;;;;;;1.45;1.27;;;20.90;99.90;;;;;;5013437;28;20109;-40
2023/07/05 02:28:23;;;;;;;1.80;1.17;;;20.90;99.90;;;;;;5013379;28;20093;-39
2023/07/05 02:30:49;;;;;;;2.42;1.27;;;20.90;99.90;;;;;;5014629;28;20030;-39
2023/07/05 02:33:14;;;;;;;1.88;1.05;;;20.90;99.90;;;;;;5014378;28;20473;-40
2023/07/05 02:35:40;;;;;;;2.13;1.20;;;20.90;99.90;;;;;;5013690;28;20042;-40
2023/07/05 02:38:06;;;;;;;1.33;1.08;;;20.90;99.90;;;;;;5013274;28;20128;-38
2023/07/05 02:40:32;;;;;;;2.10;1.38;;;20.90;99.90;;;;;;5013321;28;20037;-38
2023/07/05 02:42:59;;;;;;;1.58;1.13;;;20.90;99.90;;;;;;5013181;28;20397;-39
2023/07/05 02:45:26;;;;;;;1.92;1.15;;;20.90;99.90;;;;;;5012994;28;20317;-39
2023/07/05 02:47:52;;;;;;;2.03;1.20;;;20.90;99.90;;;;;;5013001;28;20022;-39
2023/07/05 02:50:17;;;;;;;1.58;1.00;;;20.90;99.90;;;;;;5012848;28;20052;-38
2023/07/05 02:52:44;;;;;;;2.90;1.33;;;20.90;99.90;;;;;;5013017;28;20022;-39
2023/07/05 02:55:10;;;;;;;1.65;1.05;;;20.90;99.90;;;;;;5012957;28;20164;-37
2023/07/05 02:57:35;;;;;;;1.10;0.93;;;20.90;99.90;;;;;;5012949;28;20034;-37
2023/07/05 03:00:06;;;;;;;1.55;1.05;;;20.90;99.90;;;;;;5012517;28;20142;-38
2023/07/05 03:02:32;;;;;;;4.05;1.20;;;20.90;99.90;;;;;;5012850;28;20033;-38
2023/07/05 03:04:58;;;;;;;1.70;1.40;;;20.90;99.90;;;;;;5012725;28;20026;-40
2023/07/05 03:07:23;;;;;;;1.27;0.93;;;20.90;99.90;;;;;;5013393;28;20036;-40
2023/07/05 03:09:49;;;;;;;1.60;1.20;;;20.90;99.90;;;;;;5012483;28;20022;-39
2023/07/05 03:12:15;;;;;;;1.67;1.00;;;20.90;99.90;;;;;;5013828;28;20385;-38
2023/07/05 03:14:41;;;;;;;1.67;1.00;;;20.90;99.90;;;;;;5012983;28;20093;-39
2023/07/05 03:17:07;;;;;;;1.90;1.10;;;20.90;99.90;;;;;;5013818;28;20117;-38
2023/07/05 03:19:32;;;;;;;4.25;1.38;;;20.90;99.90;;;;;;5012637;28;20033;-41
2023/07/05 03:21:59;;;;;;;1.20;1.02;;;20.90;99.90;;;;;;5012764;28;20065;-38
2023/07/05 03:24:24;;;;;;;2.13;1.10;;;20.80;99.90;;;;;;5012255;28;20029;-37
2023/07/05 03:26:53;;;;;;;1.42;1.02;;;20.90;99.90;;;;;;5012307;28;20044;-39
2023/07/05 03:29:19;;;;;;;1.50;1.00;;;20.90;99.90;;;;;;5011996;28;20028;-40
2023/07/05 03:31:45;;;;;;;4.72;1.38;;;20.80;99.90;;;;;;5012587;28;20041;-40
2023/07/05 03:34:10;;;;;;;1.73;1.17;;;20.90;99.90;;;;;;5012239;28;20076;-40
2023/07/05 03:36:36;;;;;;;1.10;1.00;;;20.80;99.90;;;;;;5012413;28;20112;-39
2023/07/05 03:39:02;;;;;;;2.92;1.20;;;20.80;99.90;;;;;;5011964;28;20114;-39
2023/07/05 03:41:27;;;;;;;1.48;1.10;;;20.80;99.90;;;;;;4994478;28;20034;-40
2023/07/05 03:43:57;;;;;;;2.13;1.40;;;20.90;99.90;;;;;;5011881;28;20041;-40
2023/07/05 03:46:23;;;;;;;1.35;1.00;;;20.90;99.90;;;;;;5013105;28;20034;-40
2023/07/05 03:48:49;;;;;;;1.77;1.10;;;20.90;99.90;;;;;;5011675;28;20079;-37
2023/07/05 03:51:19;;;;;;;6.97;1.58;;;20.80;99.90;;;;;;5011963;28;20148;-39
2023/07/05 03:53:52;;;;;;;3.17;1.35;;;20.80;99.90;;;;;;5011813;28;20065;-39
2023/07/05 03:56:18;;;;;;;1.45;0.90;;;20.80;99.90;;;;;;5012801;28;20072;-38
2023/07/05 03:58:44;;;;;;;2.38;1.15;;;20.90;99.90;;;;;;5012283;28;20065;-40
2023/07/05 04:01:14;;;;;;;1.60;1.10;;;20.80;99.90;;;;;;5011990;28;20030;-39
2023/07/05 04:03:44;;;;;;;1.63;1.10;;;20.80;99.90;;;;;;5011709;28;20040;-39
2023/07/05 04:06:11;;;;;;;1.52;1.05;;;20.90;99.90;;;;;;5011828;28;20041;-37
2023/07/05 04:08:37;;;;;;;2.38;1.20;;;20.80;99.90;;;;;;5011527;28;20044;-39
2023/07/05 04:11:02;;;;;;;1.65;1.20;;;20.80;99.90;;;;;;5011453;28;20022;-39
2023/07/05 04:13:28;;;;;;;1.88;1.25;;;20.80;99.90;;;;;;5011514;28;20029;-40
2023/07/05 04:16:02;;;;;;;1.38;1.08;;;20.80;99.90;;;;;;5010874;28;20121;-39
2023/07/05 04:18:29;;;;;;;2.10;1.20;;;20.80;99.90;;;;;;5012063;28;20024;-39
2023/07/05 04:20:55;;;;;;;3.25;1.40;;;20.80;99.90;;;;;;5011747;28;20113;-39
2023/07/05 04:23:21;;;;;;;1.88;1.17;;;20.80;99.90;;;;;;5003792;28;20491;-40
2023/07/05 04:25:47;;;;;;;1.95;1.23;;;20.80;99.90;;;;;;5011414;28;20080;-38
2023/07/05 04:28:12;;;;;;;3.33;1.00;;;20.80;99.90;;;;;;5012108;28;20108;-39
2023/07/05 04:30:38;;;;;;;1.67;0.98;;;20.80;99.90;;;;;;5011342;28;20022;-40
2023/07/05 04:33:03;;;;;;;1.42;0.98;;;20.80;99.90;;;;;;5011695;28;20026;-40
2023/07/05 04:35:30;;;;;;;2.45;1.23;;;20.80;99.90;;;;;;5011437;28;20169;-41
2023/07/05 04:37:55;;;;;;;2.45;1.00;;;20.80;99.90;;;;;;5011306;28;20036;-38
2023/07/05 04:40:22;;;;;;;1.23;0.88;;;20.80;99.90;;;;;;5005616;28;20265;-40
2023/07/05 04:42:47;;;;;;;6.57;1.52;;;20.80;99.90;;;;;;5015457;28;20054;-39
2023/07/05 04:45:13;;;;;;;3.45;1.70;;;20.70;99.90;;;;;;5015781;28;20072;-39
2023/07/05 04:47:39;;;;;;;3.00;1.27;;;20.40;99.90;;;;;;5015326;28;20026;-39
2023/07/05 04:50:05;;;;;;;4.72;1.67;;;20.30;99.90;;;;;;5015103;28;20022;-39
2023/07/05 04:52:30;;;;;;;6.25;1.80;;;20.30;99.90;;;;;;5015112;28;20022;-38
2023/07/05 04:54:56;;;;;;;7.28;1.67;;;20.40;99.90;;;;;;5015151;28;20109;-38
2023/07/05 04:57:22;;;;;;;6.57;1.60;;;20.40;99.90;;;;;;5015160;28;20037;-39
2023/07/05 04:59:51;;;;;;;5.05;1.80;;;20.50;99.90;;;;;;5015240;28;20073;-38
2023/07/05 05:02:17;;;;;;;2.45;1.35;;;20.50;99.90;;;;;;5015459;28;20465;-38
2023/07/05 05:04:43;;;;;;;5.53;1.40;;;20.50;99.90;;;;;;5014904;28;20037;-39
2023/07/05 05:07:08;;;;;;;3.92;1.50;;;20.50;99.90;;;;;;5014728;28;20030;-37
2023/07/05 05:09:34;;;;;;;6.65;1.42;;;20.50;99.90;;;;;;5015034;28;20508;-38
2023/07/05 05:11:59;;;;;;;2.53;1.42;;;20.60;99.90;;;;;;5014915;28;20109;-39
2023/07/05 05:14:25;;;;;;;4.57;1.40;;;20.60;99.90;;;;;;5014762;28;20034;-37
2023/07/05 05:16:51;;;;;;;9.88;1.55;;;20.60;99.90;;;;;;5015145;28;20481;-37
2023/07/05 05:19:16;;;;;;;3.55;1.58;;;20.60;99.90;;;;;;5014463;28;20096;-38
2023/07/05 05:21:42;;;;;;;4.28;1.58;;;20.60;99.90;;;;;;5014571;28;20397;-39
2023/07/05 05:24:07;;;;;;;3.70;1.38;;;20.60;99.90;;;;;;5014898;28;20021;-40
2023/07/05 05:26:33;;;;;;;5.97;1.17;;;20.60;99.90;;;;;;5014641;28;20026;-37
2023/07/05 05:28:59;;;;;;;8.50;1.50;;;20.60;99.90;;;;;;5014305;28;20381;-38
2023/07/05 05:31:24;;;;;;;5.65;1.77;;;20.70;99.90;;;;;;5014575;28;20030;-36
2023/07/05 05:33:50;;;;;;;3.17;1.13;;;20.70;99.90;;;;;;5014446;28;20057;-36
2023/07/05 05:36:15;;;;;;;3.05;1.40;;;20.60;99.90;;;;;;5014338;28;20030;-39
2023/07/05 05:38:41;;;;;;;3.45;1.38;;;20.60;99.90;;;;;;5014575;28;20033;-40
2023/07/05 05:41:11;;;;;;;4.55;1.30;;;20.70;99.90;;;;;;5014823;28;20026;-38
2023/07/05 05:43:41;;;;;;;4.30;1.60;;;20.70;99.90;;;;;;5014189;28;20378;-39
2023/07/05 05:46:07;;;;;;;2.75;1.33;;;20.70;99.90;;;;;;5014758;28;20103;-36
2023/07/05 05:48:33;;;;;;;1.80;1.10;;;20.70;99.90;;;;;;5014129;28;20026;-39
2023/07/05 05:50:59;;;;;;;2.42;1.13;;;20.70;99.90;;;;;;5014144;28;20493;-39
2023/07/05 05:53:25;;;;;;;2.53;1.30;;;20.70;99.90;;;;;;5014214;28;20034;-36
2023/07/05 05:55:50;;;;;;;2.75;1.50;;;20.70;99.90;;;;;;5014194;28;20026;-37
2023/07/05 05:58:16;;;;;;;2.60;1.30;;;20.70;99.90;;;;;;5014104;28;20084;-37
2023/07/05 06:00:41;;;;;;;3.05;1.48;;;20.70;99.90;;;;;;5013830;28;20026;-39
2023/07/05 06:03:07;;;;;;;3.67;1.33;;;20.70;99.90;;;;;;5014044;28;20032;-39
2023/07/05 06:05:34;;;;;;;3.05;1.40;;;20.70;99.90;;;;;;5014440;28;20037;-39
2023/07/05 06:08:00;;;;;;;3.22;1.30;;;20.70;99.90;;;;;;5013880;28;20058;-38
2023/07/05 06:10:25;;;;;;;1.83;1.20;;;20.70;99.90;;;;;;5014414;28;20026;-39
2023/07/05 06:12:51;;;;;;;3.78;1.70;;;20.70;99.90;;;;;;5013885;28;20025;-37
2023/07/05 06:15:17;;;;;;;2.28;1.20;;;20.70;99.90;;;;;;5013768;28;20093;-39
2023/07/05 06:17:43;;;;;;;5.40;1.35;;;20.70;99.90;;;;;;5013728;28;20030;-37
2023/07/05 06:20:10;;;;;;;2.58;1.30;;;20.70;99.90;;;;;;5013220;28;20033;-37
2023/07/05 06:22:36;;;;;;;6.70;1.20;;;20.70;99.90;;;;;;5013618;28;20037;-37
2023/07/05 06:25:02;;;;;;;5.95;1.58;;;20.70;99.90;;;;;;5013478;28;20022;-36
2023/07/05 06:27:28;;;;;;;10.75;2.20;;;20.80;99.90;;;;;;5013420;28;20033;-36
2023/07/05 06:29:53;;;;;;;8.65;1.88;;;20.70;99.90;;;;;;5013481;28;20026;-36
2023/07/05 06:32:19;;;;;;;6.72;1.38;;;20.70;99.90;;;;;;5013462;28;20497;-37
2023/07/05 06:34:45;;;;;;;5.60;1.65;;;20.60;99.90;;;;;;5013166;28;20512;-37
2023/07/05 06:37:11;;;;;;;10.75;2.00;;;20.60;99.90;;;;;;5013296;28;20022;-38
2023/07/05 06:39:37;;;;;;;4.90;1.60;;;20.60;99.90;;;;;;5013030;28;20029;-38
2023/07/05 06:42:03;;;;;;;5.75;1.77;;;20.60;99.90;;;;;;5013274;28;20481;-38
2023/07/05 06:44:29;;;;;;;4.78;1.60;;;20.60;99.90;;;;;;5014275;28;20124;-38
2023/07/05 06:46:54;;;;;;;5.45;1.60;;;20.70;99.90;;;;;;5013099;28;20057;-38
2023/07/05 06:49:20;;;;;;;6.15;1.90;;;20.70;99.90;;;;;;5012655;28;20110;-38
2023/07/05 06:51:46;;;;;;;5.65;1.92;;;20.70;99.90;;;;;;5013043;28;20099;-38
2023/07/05 06:54:12;;;;;;;3.67;1.40;;;20.70;99.90;;;;;;5013287;28;20029;-37
2023/07/05 06:56:37;;;;;;;7.32;1.88;;;20.70;99.90;;;;;;5012936;28;20510;-38
2023/07/05 06:59:03;;;;;;;5.35;1.42;;;20.70;99.90;;;;;;5012733;28;20108;-36
2023/07/05 07:01:29;;;;;;;4.00;1.50;;;20.70;99.90;;;;;;5012810;28;20029;-36
2023/07/05 07:03:55;;;;;;;3.92;1.60;;;20.70;99.90;;;;;;5012138;28;20493;-38
2023/07/05 07:06:20;;;;;;;1.98;1.30;;;20.70;99.90;;;;;;5012704;28;20040;-38
2023/07/05 07:08:46;;;;;;;4.13;1.77;;;20.70;99.90;;;;;;5012571;28;20532;-38
2023/07/05 07:11:12;;;;;;;4.95;1.75;;;20.70;99.90;;;;;;5012612;28;20022;-37
2023/07/05 07:13:38;;;;;;;3.50;1.33;;;20.70;99.90;;;;;;5012530;28;20080;-38
2023/07/05 07:16:04;;;;;;;2.47;1.40;;;20.70;99.90;;;;;;5012634;28;20030;-38
2023/07/05 07:18:30;;;;;;;6.22;1.77;;;20.70;99.90;;;;;;5012490;28;20036;-38
2023/07/05 07:20:56;;;;;;;3.53;1.40;;;20.70;99.90;;;;;;5012219;28;20038;-37
2023/07/05 07:23:23;;;;;;;2.38;1.50;;;20.70;99.90;;;;;;5004491;28;20551;-37
2023/07/05 07:26:00;;;;;;;6.72;1.63;;;20.70;99.90;;;;;;5012449;28;20030;-38
2023/07/05 07:28:25;;;;;;;2.33;1.23;;;20.70;99.90;;;;;;5012287;28;20033;-37
2023/07/05 07:30:51;;;;;;;4.13;1.70;;;20.70;99.90;;;;;;5012079;28;20022;-39
2023/07/05 07:33:17;;;;;;;3.80;1.35;;;20.70;99.90;;;;;;5012250;28;20030;-38
2023/07/05 07:35:42;;;;;;;4.05;1.70;;;20.70;99.90;;;;;;5012253;28;20025;-37
2023/07/05 07:38:08;;;;;;;4.20;1.67;;;20.70;99.90;;;;;;5012237;28;20394;-36
2023/07/05 07:40:37;;;;;;;2.28;1.52;;;20.70;99.90;;;;;;5011950;28;20060;-38
2023/07/05 07:43:07;;;;;;;2.67;1.40;;;20.70;99.90;;;;;;5012179;28;20517;-38
2023/07/05 07:45:33;;;;;;;2.35;1.33;;;20.80;99.90;;;;;;5012364;28;20117;-38
2023/07/05 07:47:58;;;;;;;4.00;1.70;;;20.70;99.90;;;;;;5012226;28;20371;-38
2023/07/05 07:50:25;;;;;;;3.38;1.48;;;20.70;99.90;;;;;;5011742;28;20033;-39
2023/07/05 07:52:50;;;;;;;3.13;1.35;;;20.70;99.90;;;;;;5011991;28;20030;-36
2023/07/05 07:55:16;;;;;;;3.65;1.50;;;20.70;99.90;;;;;;5011827;28;20160;-38
2023/07/05 07:57:42;;;;;;;4.25;1.50;;;20.70;99.90;;;;;;5011861;28;20097;-37
2023/07/05 08:00:10;;;;;;;2.40;1.35;;;20.70;99.90;;;;;;5011594;28;20030;-36
2023/07/05 08:02:36;;;;;;;3.35;1.38;;;20.70;99.90;;;;;;5011802;28;20022;-38
2023/07/05 08:05:03;;;;;;;3.88;1.50;;;20.70;99.90;;;;;;5011657;28;20041;-39
2023/07/05 08:07:30;;;;;;;1.85;1.17;;;20.70;99.90;;;;;;5011841;28;20030;-38
2023/07/05 08:09:56;;;;;;;2.45;1.40;;;20.70;99.90;;;;;;5011562;28;20018;-39
2023/07/05 08:12:21;;;;;;;3.00;1.30;;;20.70;99.90;;;;;;5011680;28;20037;-38
2023/07/05 08:14:47;;;;;;;2.40;1.40;;;20.70;99.90;;;;;;5010661;28;20112;-37
2023/07/05 08:17:14;;;;;;;2.35;1.25;;;20.70;99.90;;;;;;5012373;28;20093;-38
2023/07/05 08:19:40;;;;;;;2.85;1.30;;;20.70;99.90;;;;;;5012812;28;20088;-36
2023/07/05 08:22:06;;;;;;;2.55;1.40;;;20.70;99.90;;;;;;5011887;28;20022;-37
2023/07/05 08:24:32;;;;;;;1.95;1.33;;;20.70;99.90;;;;;;5012992;28;20073;-38
2023/07/05 08:26:59;;;;;;;1.60;1.25;;;20.70;99.90;;;;;;5011624;28;20033;-38
2023/07/05 08:29:24;;;;;;;1.65;1.20;;;20.70;99.90;;;;;;5012413;28;20492;-38
2023/07/05 08:31:50;;;;;;;3.40;1.42;;;20.70;99.90;;;;;;5012242;28;20117;-38
2023/07/05 08:34:16;;;;;;;2.17;1.10;;;20.70;99.90;;;;;;5012575;28;20038;-38
2023/07/05 08:36:42;;;;;;;2.03;1.27;;;20.70;99.90;;;;;;5011496;28;20034;-37
2023/07/05 08:39:10;;;;;;;3.00;1.25;;;20.70;99.90;;;;;;5011172;28;20026;-37
2023/07/05 08:41:43;;;;;;;1.60;1.20;;;20.70;99.90;;;;;;5011284;28;20514;-37
2023/07/05 08:44:14;;;;;;;2.03;1.13;;;20.70;99.90;;;;;;5011248;28;20028;-38
2023/07/05 08:46:41;;;;;;;2.05;1.30;;;20.70;99.90;;;;;;5011645;28;20281;-36
2023/07/05 08:49:17;;;;;;;3.45;1.25;;;20.70;99.90;;;;;;5011710;28;20044;-38
2023/07/05 08:51:42;;;;;;;2.08;1.10;;;20.70;99.90;;;;;;5012066;28;20041;-38
2023/07/05 08:54:13;;;;;;;1.52;1.27;;;20.70;99.90;;;;;;5011138;28;20026;-36
2023/07/05 08:56:43;;;;;;;1.85;1.10;;;20.80;99.90;;;;;;5013090;28;20014;-36
2023/07/05 08:59:30;;;;;;;3.30;1.13;;;20.70;99.90;;;;;;5011254;28;20362;-36
2023/07/05 09:01:57;;;;;;;1.60;1.15;;;20.70;99.90;;;;;;5011331;28;20049;-40
2023/07/05 09:04:25;;;;;;;2.10;1.20;;;20.70;99.90;;;;;;5011218;28;20057;-38
2023/07/05 09:07:09;;;;;;;3.67;1.23;;;20.70;99.90;;;;;;5011093;28;20025;-39
2023/07/05 09:09:54;;;;;;;2.97;1.23;;;20.80;99.90;;;;;;5010945;28;20037;-38
2023/07/05 09:12:31;;;;;;;1.98;1.40;;;20.70;99.90;;;;;;5011119;28;20026;-37
2023/07/05 09:15:24;;;;;;;1.60;0.90;;;20.70;99.90;;;;;;5011517;28;20194;-38
2023/07/05 09:18:11;;;;;;;1.27;1.05;;;20.70;99.90;;;;;;5011024;28;20080;-37
2023/07/05 09:20:45;;;;;;;2.40;1.10;;;20.70;99.90;;;;;;4974214;28;20092;-37
2023/07/05 09:23:28;;;;;;;2.75;1.33;;;20.70;99.90;;;;;;5010920;28;20018;-37
2023/07/05 09:26:01;;;;;;;1.85;1.00;;;20.70;99.90;;;;;;5013501;28;20033;-38
2023/07/05 09:28:45;;;;;;;1.27;0.90;;;20.80;99.90;;;;;;5014534;28;20030;-37
2023/07/05 09:31:14;;;;;;;1.35;1.00;;;20.80;99.90;;;;;;5014701;28;20080;-37
2023/07/05 09:33:58;;;;;;;2.83;1.75;;;20.80;99.90;;;;;;5014363;28;20018;-38
2023/07/05 09:36:26;;;;;;;2.50;1.80;;;20.70;99.90;;;;;;5014933;28;20485;-39
2023/07/05 09:39:32;;;;;;;3.00;2.00;;;20.70;99.90;;;;;;5014599;28;20053;-39
2023/07/05 09:42:00;;;;;;;3.00;1.83;;;20.70;99.90;;;;;;5014345;28;20435;-40
2023/07/05 09:44:26;;;;;;;2.60;1.75;;;20.80;99.90;;;;;;5014229;28;20076;-39
2023/07/05 09:46:51;;;;;;;2.80;1.85;;;20.80;99.90;;;;;;5014528;28;20413;-38
2023/07/05 09:49:19;;;;;;;4.10;2.03;;;20.80;99.90;;;;;;5014734;28;20029;-39
2023/07/05 09:51:46;;;;;;;3.67;2.05;;;20.90;99.90;;;;;;5014712;28;20037;-39
2023/07/05 09:54:26;;;;;;;2.75;1.75;;;20.90;99.90;;;;;;5014031;28;20026;-38
2023/07/05 09:56:56;;;;;;;3.90;1.90;;;20.90;99.90;;;;;;5014209;28;20022;-39
2023/07/05 09:59:22;;;;;;;2.72;1.88;;;21.00;99.90;;;;;;5014002;28;20182;-38
2023/07/05 10:01:53;;;;;;;2.10;1.80;;;21.00;99.90;;;;;;5014012;28;20370;-39
2023/07/05 10:04:26;;;;;;;2.42;1.98;;;21.00;99.90;;;;;;5013948;28;20443;-39
2023/07/05 10:06:52;;;;;;;4.13;2.08;;;21.00;99.90;;;;;;5013965;28;20050;-40
2023/07/05 10:09:21;;;;;;;3.40;1.80;;;21.00;99.90;;;;;;5013608;28;20022;-38
2023/07/05 10:11:52;;;;;;;2.85;1.83;;;21.10;99.90;;;;;;5013892;28;20022;-37
2023/07/05 10:14:20;;;;;;;3.00;2.00;;;21.00;99.90;;;;;;5015176;28;20029;-40
2023/07/05 10:16:49;;;;;;;3.22;2.10;;;21.10;99.90;;;;;;5014424;28;20072;-38
2023/07/05 10:19:27;;;;;;;2.35;1.90;;;21.10;99.90;;;;;;5013704;28;20040;-38
2023/07/05 10:22:26;;;;;;;2.78;2.10;;;21.10;99.90;;;;;;5014499;28;20037;-39
2023/07/05 10:24:57;;;;;;;2.78;1.85;;;21.10;99.90;;;;;;5008582;28;20114;-40
2023/07/05 10:27:43;;;;;;;2.67;1.88;;;21.10;99.90;;;;;;5012998;28;20229;-40
2023/07/05 10:30:13;;;;;;;3.10;2.00;;;21.10;99.90;;;;;;5014179;28;20474;-39
2023/07/05 10:32:40;;;;;;;2.53;2.00;;;21.10;99.90;;;;;;5014963;28;20029;-39
2023/07/05 10:35:24;;;;;;;2.63;2.05;;;21.10;99.90;;;;;;5013473;28;20097;-38
2023/07/05 10:37:51;;;;;;;3.17;2.00;;;21.10;99.90;;;;;;5013507;28;20367;-37
2023/07/05 10:40:17;;;;;;;2.60;1.83;;;21.20;99.90;;;;;;5013869;28;20052;-39
2023/07/05 10:43:01;;;;;;;2.13;1.60;;;21.20;99.90;;;;;;5013199;28;20090;-39
2023/07/05 10:45:34;;;;;;;2.03;1.70;;;21.20;99.90;;;;;;5006435;28;20036;-38
2023/07/05 10:48:01;;;;;;;2.85;1.92;;;21.20;99.90;;;;;;5013625;28;20034;-38
2023/07/05 10:50:30;;;;;;;3.00;1.85;;;21.20;99.90;;;;;;5014130;28;20022;-37
2023/07/05 10:53:17;;;;;;;2.33;1.70;;;21.20;99.90;;;;;;5012968;28;20080;-38
2023/07/05 10:55:49;;;;;;;1.85;1.50;;;21.20;99.90;;;;;;5007915;28;20489;-39
2023/07/05 10:58:18;;;;;;;3.17;2.17;;;21.20;99.90;;;;;;5013647;28;20121;-37
2023/07/05 11:01:13;;;;;;;2.60;2.00;;;21.20;99.90;;;;;;5012593;28;20392;-39
2023/07/05 11:03:47;;;;;;;2.70;1.80;;;21.20;99.90;;;;;;5007718;28;20037;-39
2023/07/05 11:06:14;;;;;;;2.35;1.80;;;21.20;99.90;;;;;;5012871;28;20034;-38
2023/07/05 11:08:42;;;;;;;3.35;2.85;;;21.20;99.90;;;;;;5012605;28;20042;-40
2023/07/05 11:11:23;;;;;;;23.00;3.08;;;21.20;99.90;;;;;;5012633;28;20104;-37
2023/07/05 11:13:50;;;;;;;8.13;2.95;;;21.20;99.30;;;;;;5013252;28;20105;-41
2023/07/05 11:16:27;;;;;;;7.93;2.50;;;21.20;99.90;;;;;;5012623;28;20084;-40
2023/07/05 11:19:06;;;;;;;10.70;2.72;;;21.20;99.90;;;;;;5011067;28;20083;-39
2023/07/05 11:21:39;;;;;;;10.32;2.53;;;21.20;99.90;;;;;;5012552;28;20034;-37
2023/07/05 11:24:09;;;;;;;4.00;2.67;;;21.20;99.90;;;;;;5013559;28;20450;-39
2023/07/05 11:26:38;;;;;;;8.57;2.90;;;21.20;99.90;;;;;;5012411;28;20056;-38
2023/07/05 11:29:32;;;;;;;3.88;2.67;;;21.20;99.90;;;;;;5012602;28;20033;-40
2023/07/05 11:32:01;;;;;;;5.70;2.92;;;21.20;99.90;;;;;;4984489;28;20486;-40
2023/07/05 11:34:27;;;;;;;4.88;2.67;;;21.20;99.90;;;;;;5012692;28;20026;-39
2023/07/05 11:37:04;;;;;;;3.95;2.40;;;21.20;99.90;;;;;;5013247;28;20026;-36
2023/07/05 11:39:33;;;;;;;9.90;2.88;;;21.20;99.90;;;;;;5012781;28;20045;-40
2023/07/05 11:42:24;;;;;;;3.67;2.42;;;21.20;99.90;;;;;;5012461;28;20109;-39
2023/07/05 11:45:10;;;;;;;2.97;2.30;;;21.20;99.90;;;;;;5011958;28;20033;-39
2023/07/05 11:47:35;;;;;;;5.82;2.35;;;21.30;99.90;;;;;;5011982;28;20030;-39
2023/07/05 11:50:09;;;;;;;9.10;2.72;;;21.30;99.90;;;;;;5011672;28;20040;-39
2023/07/05 11:52:36;;;;;;;4.03;2.27;;;21.30;99.90;;;;;;5012085;28;20026;-39
2023/07/05 11:55:15;;;;;;;4.95;1.90;;;21.30;97.20;;;;;;5011843;28;20676;-39
2023/07/05 11:57:55;;;;;;;2.95;2.10;;;21.30;97.20;;;;;;5011855;28;20057;-40
2023/07/05 12:00:30;;;;;;;2.80;1.90;;;21.20;94.80;;;;;;5013285;28;20080;-40
2023/07/05 12:03:13;;;;;;;2.28;1.60;;;21.20;95.90;;;;;;5013120;28;20038;-39
2023/07/05 12:05:39;;;;;;;4.10;2.00;;;21.20;96.10;;;;;;5011909;28;20022;-39
2023/07/05 12:08:15;;;;;;;2.70;1.63;;;21.30;96.30;;;;;;5011646;28;20441;-37
2023/07/05 12:10:51;;;;;;;3.05;2.00;;;21.20;96.50;;;;;;5011668;28;20384;-40
2023/07/05 12:13:37;;;;;;;2.50;2.10;;;21.20;96.80;;;;;;5012071;28;20037;-41
2023/07/05 12:16:14;;;;;;;3.10;1.83;;;21.20;97.00;;;;;;5011140;28;20130;-39
2023/07/05 12:18:40;;;;;;;3.25;1.80;;;21.20;97.20;;;;;;5012961;28;20030;-38
2023/07/05 12:21:06;;;;;;;3.58;1.85;;;21.30;97.40;;;;;;5011473;28;20034;-42
2023/07/05 12:23:35;;;;;;;2.95;1.85;;;21.30;97.60;;;;;;5011641;28;20025;-39
2023/07/05 12:26:04;;;;;;;3.38;1.80;;;21.30;97.70;;;;;;5011548;28;20041;-38
2023/07/05 12:28:32;;;;;;;2.30;1.70;;;21.30;97.90;;;;;;5012456;28;20393;-39
2023/07/05 12:31:08;;;;;;;3.40;1.90;;;21.30;98.00;;;;;;5012392;28;20536;-41
2023/07/05 12:33:36;;;;;;;3.20;2.08;;;21.30;98.10;;;;;;5012882;28;20106;-40
2023/07/05 12:36:13;;;;;;;3.53;1.67;;;21.30;98.20;;;;;;5011461;28;20049;-37
2023/07/05 12:38:41;;;;;;;2.35;1.60;;;21.30;98.30;;;;;;5011896;28;20641;-39
2023/07/05 12:41:16;;;;;;;2.75;2.00;;;21.30;98.40;;;;;;5011379;28;20056;-40
2023/07/05 12:43:42;;;;;;;2.10;1.52;;;21.40;98.50;;;;;;5012280;28;20113;-40
2023/07/05 12:46:29;;;;;;;2.67;1.67;;;21.40;98.60;;;;;;5011421;28;20174;-40
2023/07/05 12:48:55;;;;;;;5.53;2.05;;;21.40;98.70;;;;;;5011276;28;20029;-39
2023/07/05 12:51:26;;;;;;;2.78;1.90;;;21.40;98.80;;;;;;5011828;28;20026;-39
2023/07/05 12:54:02;;;;;;;2.53;1.75;;;21.40;98.80;;;;;;5011672;28;20461;-40
2023/07/05 12:56:37;;;;;;;2.90;1.95;;;21.40;98.90;;;;;;5004441;28;20033;-41
2023/07/05 12:59:18;;;;;;;3.65;2.15;;;21.40;99.00;;;;;;5011313;28;20122;-37